Concordia, Brazil
Current Conditions -  °F | °C
As of 7:00 PM on Tuesday 27 Jan 2015 (Local Time) from SBCH Reporting Station
Thunderstorm Thunderstorm  
Wind Chill: 81°   Ceiling: 8000
Heat Index: 84°   Visibility: 6mi
Dew Point: 70°   Wind: 12mph
Humidity: 70%   Direction: 140°SE
Pressure: 29.88"   Gusts: NA
Location:  27.23°S, 52.03°W
Report Text: SBCH 272100Z 14010KT 9000 -TSRA FEW030 FEW040CB BKN080 27/21 Q1012
Loading
Personal Weather Stations






























Interactive Weather Map New forecast layout! Learn more

10-Day Weather Forecast

Advertisements
Track Severe Weather on mobile